Time;durP1;ratioP1;P1;durP2;ratioP2;P2;SDS_P1;SDS_P2;PMS_P1;PMS_P2;Temp;Humidity;BMP_temperature;BMP_pressure;BME280_temperature;BME280_humidity;BME280_pressure;Samples;Min_cycle;Max_cycle;Signal;HPM_P1;HPM_P2
2021/08/09 00:02:27;;;;;;;;;;;;;;;;;;10297101;28;19968;-64
2021/08/09 00:07:24;;;;;;;;;;;;;;;;;;10302183;28;19925;-65
2021/08/09 00:12:22;;;;;;;;;;;;;;;;;;10303780;28;20016;-64
2021/08/09 00:17:19;;;;;;;;;;;;;;;;;;10291945;28;19917;-64
2021/08/09 00:22:16;;;;;;;;;;;;;;;;;;10301074;28;19929;-67
2021/08/09 00:27:13;;;;;;;;;;;;;;;;;;10285663;28;19917;-67
2021/08/09 00:32:11;;;;;;;;;;;;;;;;;;10292629;28;19921;-66
2021/08/09 00:37:08;;;;;;;;;;;;;;;;;;10319648;28;19917;-63
2021/08/09 00:42:07;;;;;;;;;;;;;;;;;;10285380;28;20016;-66
2021/08/09 00:47:06;;;;;;;;;;;;;;;;;;10295653;28;19925;-66
2021/08/09 00:52:04;;;;;;;;;;;;;;;;;;10315872;28;19920;-65
2021/08/09 00:57:02;;;;;;;;;;;;;;;;;;10304696;28;20347;-67
2021/08/09 01:02:00;;;;;;;;;;;;;;;;;;10311601;28;19947;-65
2021/08/09 01:06:58;;;;;;;;;;;;;;;;;;10314668;28;19965;-65
2021/08/09 01:11:55;;;;;;;;;;;;;;;;;;10299269;28;19957;-66
2021/08/09 01:16:54;;;;;;;;;;;;;;;;;;10294101;28;20278;-65
2021/08/09 01:21:51;;;;;;;;;;;;;;;;;;10311816;28;19939;-65
2021/08/09 01:26:48;;;;;;;;;;;;;;;;;;10317229;28;19921;-65
2021/08/09 01:31:45;;;;;;;;;;;;;;;;;;10306088;28;20376;-66
2021/08/09 01:36:46;;;;;;;;;;;;;;;;;;10308029;28;19968;-65
2021/08/09 01:41:43;;;;;;;;;;;;;;;;;;10312610;28;19921;-66
2021/08/09 01:46:40;;;;;;;;;;;;;;;;;;10296215;28;19929;-65
2021/08/09 01:51:38;;;;;;;;;;;;;;;;;;10312588;28;20360;-67
2021/08/09 01:56:37;;;;;;;;;;;;;;;;;;10289456;28;19925;-67
2021/08/09 02:01:34;;;;;;;;;;;;;;;;;;10301305;28;19921;-67
2021/08/09 02:06:31;;;;;;;;;;;;;;;;;;10311008;28;19940;-66
2021/08/09 02:11:31;;;;;;;;;;;;;;;;;;10312340;28;20302;-66
2021/08/09 02:16:28;;;;;;;;;;;;;;;;;;10306914;28;19925;-66
2021/08/09 02:21:32;;;;;;;;;;;;;;;;;;10303053;28;19943;-65
2021/08/09 02:26:33;;;;;;;;;;;;;;;;;;10316276;28;19965;-65
2021/08/09 02:31:31;;;;;;;;;;;;;;;;;;10295291;28;19921;-67
2021/08/09 02:36:28;;;;;;;;;;;;;;;;;;10303264;28;19929;-68
2021/08/09 02:41:26;;;;;;;;;;;;;;;;;;10312032;28;20000;-67
2021/08/09 02:46:23;;;;;;;;;;;;;;;;;;10307419;28;19921;-66
2021/08/09 02:51:20;;;;;;;;;;;;;;;;;;10294460;28;19921;-64
2021/08/09 02:56:19;;;;;;;;;;;;;;;;;;10302229;28;19925;-66
2021/08/09 03:01:16;;;;;;;;;;;;;;;;;;10318748;28;19921;-67
2021/08/09 03:06:13;;;;;;;;;;;;;;;;;;10318627;28;19924;-65
2021/08/09 03:11:10;;;;;;;;;;;;;;;;;;10314924;28;20012;-65
2021/08/09 03:16:09;;;;;;;;;;;;;;;;;;10315981;28;19917;-64
2021/08/09 03:21:06;;;;;;;;;;;;;;;;;;10314986;28;19921;-65
2021/08/09 03:26:04;;;;;;;;;;;;;;;;;;10315070;28;19987;-65
2021/08/09 03:31:03;;;;;;;;;;;;;;;;;;10331433;28;19925;-66
2021/08/09 03:36:01;;;;;;;;;;;;;;;;;;10331884;28;20450;-65
2021/08/09 03:40:58;;;;;;;;;;;;;;;;;;10314363;28;20049;-66
2021/08/09 03:45:56;;;;;;;;;;;;;;;;;;10331550;28;20233;-65
2021/08/09 03:50:53;;;;;;;;;;;;;;;;;;10331440;28;20017;-65
2021/08/09 03:55:50;;;;;;;;;;;;;;;;;;10314707;28;19924;-65
2021/08/09 04:00:48;;;;;;;;;;;;;;;;;;10330638;28;19922;-66
2021/08/09 04:05:45;;;;;;;;;;;;;;;;;;10315703;28;19926;-63
2021/08/09 04:10:42;;;;;;;;;;;;;;;;;;10315507;28;19949;-66
2021/08/09 04:15:39;;;;;;;;;;;;;;;;;;10330964;28;19982;-66
2021/08/09 04:20:37;;;;;;;;;;;;;;;;;;10327865;28;19921;-65
2021/08/09 04:25:35;;;;;;;;;;;;;;;;;;10323737;28;19983;-65
2021/08/09 04:30:32;;;;;;;;;;;;;;;;;;10323639;28;19957;-66
2021/08/09 04:35:29;;;;;;;;;;;;;;;;;;10308671;28;19924;-67
2021/08/09 04:40:30;;;;;;;;;;;;;;;;;;10276149;28;19929;-65
2021/08/09 04:45:28;;;;;;;;;;;;;;;;;;10292330;28;19936;-65
2021/08/09 04:50:25;;;;;;;;;;;;;;;;;;10278114;28;19958;-66
2021/08/09 04:55:23;;;;;;;;;;;;;;;;;;10300717;22;19925;-61
2021/08/09 05:00:23;;;;;;;;;;;;;;;;;;10237834;28;20416;-62
2021/08/09 05:05:20;;;;;;;;;;;;;;;;;;10239590;28;20055;-60
2021/08/09 05:10:18;;;;;;;;;;;;;;;;;;10228539;28;19909;-61
2021/08/09 05:15:16;;;;;;;;;;;;;;;;;;10240970;28;19936;-59
2021/08/09 05:20:15;;;;;;;;;;;;;;;;;;10225908;28;20424;-60
2021/08/09 05:25:12;;;;;;;;;;;;;;;;;;10255156;22;20250;-63
2021/08/09 05:30:09;;;;;;;;;;;;;;;;;;10306597;28;20098;-64
2021/08/09 05:35:07;;;;;;;;;;;;;;;;;;10278583;28;20364;-64
2021/08/09 05:40:04;;;;;;;;;;;;;;;;;;10287816;28;20405;-64
2021/08/09 05:45:01;;;;;;;;;;;;;;;;;;10269587;28;20347;-62
2021/08/09 05:49:59;;;;;;;;;;;;;;;;;;10243333;28;19967;-62
2021/08/09 05:55:02;;;;;;;;;;;;;;;;;;10281096;28;19968;-63
2021/08/09 05:59:59;;;;;;;;;;;;;;;;;;10297787;28;19925;-63
2021/08/09 06:04:57;;;;;;;;;;;;;;;;;;10283991;28;19964;-63
2021/08/09 06:09:54;;;;;;;;;;;;;;;;;;10293361;28;20418;-63
2021/08/09 06:14:52;;;;;;;;;;;;;;;;;;10302396;28;20153;-63
2021/08/09 06:19:49;;;;;;;;;;;;;;;;;;10268266;28;20052;-62
2021/08/09 06:24:46;;;;;;;;;;;;;;;;;;10270728;28;20306;-62
2021/08/09 06:29:44;;;;;;;;;;;;;;;;;;10275685;28;19925;-63
2021/08/09 06:34:41;;;;;;;;;;;;;;;;;;10281447;28;20000;-61
2021/08/09 06:39:38;;;;;;;;;;;;;;;;;;10259444;28;19932;-62
2021/08/09 06:44:36;;;;;;;;;;;;;;;;;;10262356;28;20342;-60
2021/08/09 06:49:33;;;;;;;;;;;;;;;;;;10279674;28;19922;-63
2021/08/09 06:54:31;;;;;;;;;;;;;;;;;;10308873;28;20011;-62
2021/08/09 06:59:35;;;;;;;;;;;;;;;;;;10298730;28;19991;-64
2021/08/09 07:04:33;;;;;;;;;;;;;;;;;;10272949;28;19953;-62
2021/08/09 07:09:30;;;;;;;;;;;;;;;;;;10295992;28;19917;-62
2021/08/09 07:14:27;;;;;;;;;;;;;;;;;;10287089;28;19917;-63
2021/08/09 07:19:25;;;;;;;;;;;;;;;;;;10293132;28;19979;-63
2021/08/09 07:24:23;;;;;;;;;;;;;;;;;;10279199;28;19968;-62
2021/08/09 07:29:21;;;;;;;;;;;;;;;;;;10261697;28;20287;-61
2021/08/09 07:34:18;;;;;;;;;;;;;;;;;;10287461;28;19926;-61
2021/08/09 07:39:15;;;;;;;;;;;;;;;;;;10289100;28;20028;-62
2021/08/09 07:44:13;;;;;;;;;;;;;;;;;;10258294;28;19926;-59
2021/08/09 07:49:10;;;;;;;;;;;;;;;;;;10255061;28;19986;-57
2021/08/09 07:54:07;;;;;;;;;;;;;;;;;;10290146;28;19950;-61
2021/08/09 07:59:05;;;;;;;;;;;;;;;;;;10308307;28;19921;-61
2021/08/09 08:04:03;;;;;;;;;;;;;;;;;;10284282;28;19943;-61
2021/08/09 08:09:00;;;;;;;;;;;;;;;;;;10286286;28;19925;-61
2021/08/09 08:13:59;;;;;;;;;;;;;;;;;;10290174;28;19918;-61
2021/08/09 08:18:56;;;;;;;;;;;;;;;;;;10289399;28;20289;-62
2021/08/09 08:23:54;;;;;;;;;;;;;;;;;;10272041;28;19929;-61
2021/08/09 08:28:51;;;;;;;;;;;;;;;;;;10279910;28;20395;-62
2021/08/09 08:33:49;;;;;;;;;;;;;;;;;;10267458;28;20365;-61
2021/08/09 08:38:46;;;;;;;;;;;;;;;;;;10295567;28;20375;-60
2021/08/09 08:43:44;;;;;;;;;;;;;;;;;;10276823;28;20019;-61
2021/08/09 08:48:42;;;;;;;;;;;;;;;;;;10273863;28;20008;-61
2021/08/09 08:53:39;;;;;;;;;;;;;;;;;;10290988;28;19925;-62
2021/08/09 08:58:36;;;;;;;;;;;;;;;;;;10278872;28;19925;-62
2021/08/09 09:03:33;;;;;;;;;;;;;;;;;;10283185;28;20763;-61
2021/08/09 09:08:31;;;;;;;;;;;;;;;;;;10293591;28;19925;-61
2021/08/09 09:13:28;;;;;;;;;;;;;;;;;;10291681;28;19918;-62
2021/08/09 09:18:28;;;;;;;;;;;;;;;;;;10296448;28;19920;-62
2021/08/09 09:23:25;;;;;;;;;;;;;;;;;;10293887;28;19929;-61
2021/08/09 09:28:23;;;;;;;;;;;;;;;;;;10279210;28;20308;-61
2021/08/09 09:33:20;;;;;;;;;;;;;;;;;;10275389;28;20324;-60
2021/08/09 09:38:18;;;;;;;;;;;;;;;;;;10292508;28;20486;-61
2021/08/09 09:43:15;;;;;;;;;;;;;;;;;;10275676;28;19928;-60
2021/08/09 09:48:14;;;;;;;;;;;;;;;;;;10285697;28;20003;-60
2021/08/09 09:53:11;;;;;;;;;;;;;;;;;;10290540;28;19953;-61
2021/08/09 09:58:08;;;;;;;;;;;;;;;;;;10283873;28;20012;-61
2021/08/09 10:03:05;;;;;;;;;;;;;;;;;;10272769;28;20287;-61
2021/08/09 10:08:03;;;;;;;;;;;;;;;;;;10275104;28;19922;-61
2021/08/09 10:13:00;;;;;;;;;;;;;;;;;;10282796;28;19921;-62
2021/08/09 10:17:57;;;;;;;;;;;;;;;;;;10279762;28;19918;-61
2021/08/09 10:22:55;;;;;;;;;;;;;;;;;;10282948;28;19936;-61
2021/08/09 10:27:52;;;;;;;;;;;;;;;;;;10279064;28;20290;-61
2021/08/09 10:32:51;;;;;;;;;;;;;;;;;;10268289;28;19949;-64
2021/08/09 10:37:48;;;;;;;;;;;;;;;;;;10277472;28;20016;-62
2021/08/09 10:42:45;;;;;;;;;;;;;;;;;;10278076;28;20020;-63
2021/08/09 10:47:43;;;;;;;;;;;;;;;;;;10267180;28;19921;-63
2021/08/09 10:52:41;;;;;;;;;;;;;;;;;;10265971;28;20444;-62
2021/08/09 10:57:40;;;;;;;;;;;;;;;;;;10267814;28;21332;-63
2021/08/09 11:02:37;;;;;;;;;;;;;;;;;;10279368;28;19991;-62
2021/08/09 11:07:34;;;;;;;;;;;;;;;;;;10269198;28;19966;-62
2021/08/09 11:12:32;;;;;;;;;;;;;;;;;;10266053;28;19921;-62
2021/08/09 11:17:31;;;;;;;;;;;;;;;;;;10292609;28;19944;-63
2021/08/09 11:22:28;;;;;;;;;;;;;;;;;;10290049;28;19981;-63
2021/08/09 11:27:25;;;;;;;;;;;;;;;;;;10268912;28;20521;-62
2021/08/09 11:32:22;;;;;;;;;;;;;;;;;;10286863;28;19944;-62
2021/08/09 11:37:20;;;;;;;;;;;;;;;;;;10283698;28;19917;-62
2021/08/09 11:42:17;;;;;;;;;;;;;;;;;;10285598;28;19928;-62
2021/08/09 11:47:14;;;;;;;;;;;;;;;;;;10292028;28;19917;-63
2021/08/09 11:52:11;;;;;;;;;;;;;;;;;;10256267;28;19939;-62
2021/08/09 11:57:09;;;;;;;;;;;;;;;;;;10273402;28;19917;-62
2021/08/09 12:02:06;;;;;;;;;;;;;;;;;;10260429;28;20690;-62
2021/08/09 12:07:04;;;;;;;;;;;;;;;;;;10279591;28;19918;-61
2021/08/09 12:12:01;;;;;;;;;;;;;;;;;;10279280;28;19918;-62
2021/08/09 12:16:58;;;;;;;;;;;;;;;;;;10264517;28;20414;-61
2021/08/09 12:21:56;;;;;;;;;;;;;;;;;;10280059;28;20394;-61
2021/08/09 12:26:53;;;;;;;;;;;;;;;;;;10286277;28;19921;-62
2021/08/09 12:31:50;;;;;;;;;;;;;;;;;;10262441;28;20376;-61
2021/08/09 12:36:47;;;;;;;;;;;;;;;;;;10291048;28;19927;-61
2021/08/09 12:41:45;;;;;;;;;;;;;;;;;;10283879;28;19928;-62
2021/08/09 12:46:42;;;;;;;;;;;;;;;;;;10274035;28;19943;-62
2021/08/09 12:51:39;;;;;;;;;;;;;;;;;;10272959;28;19921;-62
2021/08/09 12:56:37;;;;;;;;;;;;;;;;;;10287005;28;20375;-62
2021/08/09 13:01:38;;;;;;;;;;;;;;;;;;10285593;28;20344;-62
2021/08/09 13:06:35;;;;;;;;;;;;;;;;;;10270269;28;19963;-61
2021/08/09 13:11:34;;;;;;;;;;;;;;;;;;10279296;28;20016;-61
2021/08/09 13:16:33;;;;;;;;;;;;;;;;;;10282964;28;19917;-62
2021/08/09 13:21:31;;;;;;;;;;;;;;;;;;10279278;28;20088;-62
2021/08/09 13:26:28;;;;;;;;;;;;;;;;;;10282329;28;20012;-61
2021/08/09 13:31:25;;;;;;;;;;;;;;;;;;10281698;28;19918;-61
2021/08/09 13:36:23;;;;;;;;;;;;;;;;;;10287833;28;19926;-61
2021/08/09 13:41:20;;;;;;;;;;;;;;;;;;10271594;28;20573;-61
2021/08/09 13:46:17;;;;;;;;;;;;;;;;;;10288982;28;20295;-62
2021/08/09 13:51:14;;;;;;;;;;;;;;;;;;10277882;28;19928;-62
2021/08/09 13:56:12;;;;;;;;;;;;;;;;;;10292882;28;19943;-62
2021/08/09 14:01:09;;;;;;;;;;;;;;;;;;10282947;28;19921;-61
2021/08/09 14:06:09;;;;;;;;;;;;;;;;;;10262532;28;19921;-61
2021/08/09 14:11:06;;;;;;;;;;;;;;;;;;10258619;28;20492;-61
2021/08/09 14:16:03;;;;;;;;;;;;;;;;;;10271636;28;19927;-61
2021/08/09 14:21:04;;;;;;;;;;;;;;;;;;10309878;28;20443;-61
2021/08/09 14:26:01;;;;;;;;;;;;;;;;;;10276096;28;20012;-60
2021/08/09 14:30:59;;;;;;;;;;;;;;;;;;10285423;28;19967;-62
2021/08/09 14:35:57;;;;;;;;;;;;;;;;;;10290251;28;20275;-61
2021/08/09 14:40:56;;;;;;;;;;;;;;;;;;10286975;28;19957;-61
2021/08/09 14:45:53;;;;;;;;;;;;;;;;;;10293035;28;19917;-61
2021/08/09 14:50:54;;;;;;;;;;;;;;;;;;10272565;28;19917;-61
2021/08/09 14:55:52;;;;;;;;;;;;;;;;;;10253995;28;20325;-59
2021/08/09 15:00:49;;;;;;;;;;;;;;;;;;10282562;28;19932;-61
2021/08/09 15:06:12;;;;;;;;;;;;;;;;;;10271447;28;20012;-60
2021/08/09 15:11:10;;;;;;;;;;;;;;;;;;10292675;28;20017;-62
2021/08/09 15:16:07;;;;;;;;;;;;;;;;;;10273421;28;20400;-61
2021/08/09 15:21:04;;;;;;;;;;;;;;;;;;10284486;28;20338;-62
2021/08/09 15:26:01;;;;;;;;;;;;;;;;;;10285448;28;19921;-60
2021/08/09 15:30:59;;;;;;;;;;;;;;;;;;10283724;28;19978;-61
2021/08/09 15:35:56;;;;;;;;;;;;;;;;;;10295257;28;20298;-60
2021/08/09 15:40:53;;;;;;;;;;;;;;;;;;10265657;28;19929;-61
2021/08/09 15:45:51;;;;;;;;;;;;;;;;;;10280747;28;19921;-61
2021/08/09 15:50:48;;;;;;;;;;;;;;;;;;10281127;28;19917;-62
2021/08/09 15:55:45;;;;;;;;;;;;;;;;;;10262419;28;20041;-61
2021/08/09 16:00:43;;;;;;;;;;;;;;;;;;10288524;28;20391;-61
2021/08/09 16:05:40;;;;;;;;;;;;;;;;;;10257646;28;19925;-62
2021/08/09 16:10:37;;;;;;;;;;;;;;;;;;10281404;28;20028;-62
2021/08/09 16:15:35;;;;;;;;;;;;;;;;;;10280797;28;19913;-64
2021/08/09 16:20:33;;;;;;;;;;;;;;;;;;10283834;28;19971;-64
2021/08/09 16:25:30;;;;;;;;;;;;;;;;;;10280200;28;19925;-62
2021/08/09 16:30:27;;;;;;;;;;;;;;;;;;10258416;28;20582;-61
2021/08/09 16:35:25;;;;;;;;;;;;;;;;;;10272787;28;19910;-62
2021/08/09 16:40:22;;;;;;;;;;;;;;;;;;10282622;28;20613;-61
2021/08/09 16:45:19;;;;;;;;;;;;;;;;;;10275531;28;20378;-62
2021/08/09 16:50:17;;;;;;;;;;;;;;;;;;10285435;28;19909;-62
2021/08/09 16:55:14;;;;;;;;;;;;;;;;;;10298076;28;19925;-61
2021/08/09 17:00:12;;;;;;;;;;;;;;;;;;10278035;28;19921;-62
2021/08/09 17:05:10;;;;;;;;;;;;;;;;;;10282716;28;19970;-62
2021/08/09 17:10:08;;;;;;;;;;;;;;;;;;10283719;28;19952;-62
2021/08/09 17:15:05;;;;;;;;;;;;;;;;;;10270145;28;20041;-62
2021/08/09 17:20:03;;;;;;;;;;;;;;;;;;10277246;28;20027;-62
2021/08/09 17:25:01;;;;;;;;;;;;;;;;;;10272678;28;20562;-62
2021/08/09 17:29:58;;;;;;;;;;;;;;;;;;10263074;28;19921;-62
2021/08/09 17:34:55;;;;;;;;;;;;;;;;;;10272598;28;19921;-61
2021/08/09 17:39:54;;;;;;;;;;;;;;;;;;10277189;28;19926;-61
2021/08/09 17:44:51;;;;;;;;;;;;;;;;;;10280259;28;19918;-62
2021/08/09 17:49:50;;;;;;;;;;;;;;;;;;10284643;28;19917;-61
2021/08/09 17:54:47;;;;;;;;;;;;;;;;;;10280161;28;19918;-61
2021/08/09 17:59:45;;;;;;;;;;;;;;;;;;10274962;28;20531;-61
2021/08/09 18:04:42;;;;;;;;;;;;;;;;;;10273783;28;19921;-61
2021/08/09 18:09:39;;;;;;;;;;;;;;;;;;10270491;28;20020;-62
2021/08/09 18:14:36;;;;;;;;;;;;;;;;;;10283069;28;19916;-61
2021/08/09 18:19:34;;;;;;;;;;;;;;;;;;10278777;28;19917;-61
2021/08/09 18:24:31;;;;;;;;;;;;;;;;;;10279955;28;19977;-61
2021/08/09 18:29:28;;;;;;;;;;;;;;;;;;10263977;28;19921;-61
2021/08/09 18:34:27;;;;;;;;;;;;;;;;;;10278334;28;19929;-61
2021/08/09 18:39:24;;;;;;;;;;;;;;;;;;10274639;28;19961;-61
2021/08/09 18:44:21;;;;;;;;;;;;;;;;;;10258699;28;19918;-61
2021/08/09 18:49:19;;;;;;;;;;;;;;;;;;10274066;28;19917;-61
2021/08/09 18:54:16;;;;;;;;;;;;;;;;;;10275015;28;19921;-61
2021/08/09 18:59:13;;;;;;;;;;;;;;;;;;10273144;28;20389;-63
2021/08/09 19:04:11;;;;;;;;;;;;;;;;;;10272471;28;21260;-61
2021/08/09 19:09:08;;;;;;;;;;;;;;;;;;10276101;28;19987;-61
2021/08/09 19:14:05;;;;;;;;;;;;;;;;;;10271756;28;19960;-62
2021/08/09 19:19:03;;;;;;;;;;;;;;;;;;10270682;28;19922;-61
2021/08/09 19:24:00;;;;;;;;;;;;;;;;;;10264488;28;19921;-61
2021/08/09 19:28:57;;;;;;;;;;;;;;;;;;10267149;28;19935;-62
2021/08/09 19:33:54;;;;;;;;;;;;;;;;;;10268857;28;19924;-61
2021/08/09 19:38:52;;;;;;;;;;;;;;;;;;10270964;28;19917;-60
2021/08/09 19:43:49;;;;;;;;;;;;;;;;;;10270928;28;20317;-61
2021/08/09 19:48:46;;;;;;;;;;;;;;;;;;10272382;28;19921;-61
2021/08/09 19:53:43;;;;;;;;;;;;;;;;;;10278288;28;19924;-60
2021/08/09 19:58:41;;;;;;;;;;;;;;;;;;10281834;28;19989;-60
2021/08/09 20:03:38;;;;;;;;;;;;;;;;;;10261950;28;19999;-61
2021/08/09 20:08:36;;;;;;;;;;;;;;;;;;10272038;28;19921;-60
2021/08/09 20:13:33;;;;;;;;;;;;;;;;;;10278955;28;20024;-61
2021/08/09 20:18:30;;;;;;;;;;;;;;;;;;10298230;28;19921;-61
2021/08/09 20:23:28;;;;;;;;;;;;;;;;;;10284407;28;20434;-60
2021/08/09 20:28:25;;;;;;;;;;;;;;;;;;10282844;28;19921;-61
2021/08/09 20:33:22;;;;;;;;;;;;;;;;;;10273034;28;19943;-60
2021/08/09 20:38:20;;;;;;;;;;;;;;;;;;10279832;28;19928;-60
2021/08/09 20:43:17;;;;;;;;;;;;;;;;;;10283349;28;19967;-60
2021/08/09 20:48:14;;;;;;;;;;;;;;;;;;10290641;28;19921;-60
2021/08/09 20:53:11;;;;;;;;;;;;;;;;;;10283044;28;19971;-61
2021/08/09 20:58:09;;;;;;;;;;;;;;;;;;10282943;28;20337;-59
2021/08/09 21:03:06;;;;;;;;;;;;;;;;;;10282493;28;19927;-60
2021/08/09 21:08:05;;;;;;;;;;;;;;;;;;10282159;28;19928;-60
2021/08/09 21:13:02;;;;;;;;;;;;;;;;;;10270527;28;19921;-61
2021/08/09 21:18:00;;;;;;;;;;;;;;;;;;10268817;28;19917;-60
2021/08/09 21:22:57;;;;;;;;;;;;;;;;;;10274764;28;20302;-61
2021/08/09 21:27:54;;;;;;;;;;;;;;;;;;10265566;28;20334;-62
2021/08/09 21:32:51;;;;;;;;;;;;;;;;;;10271357;28;19917;-61
2021/08/09 21:37:49;;;;;;;;;;;;;;;;;;10282916;28;19964;-61
2021/08/09 21:42:46;;;;;;;;;;;;;;;;;;10280764;28;19921;-60
2021/08/09 21:47:43;;;;;;;;;;;;;;;;;;10272417;28;19921;-62
2021/08/09 21:52:41;;;;;;;;;;;;;;;;;;10290162;28;20632;-61
2021/08/09 21:57:38;;;;;;;;;;;;;;;;;;10273889;28;19917;-62
2021/08/09 22:02:35;;;;;;;;;;;;;;;;;;10273921;28;19921;-62
2021/08/09 22:07:33;;;;;;;;;;;;;;;;;;10278883;28;20023;-60
2021/08/09 22:12:30;;;;;;;;;;;;;;;;;;10271440;28;19917;-60
2021/08/09 22:17:27;;;;;;;;;;;;;;;;;;10259783;28;19928;-61
2021/08/09 22:22:24;;;;;;;;;;;;;;;;;;10275033;28;19921;-61
2021/08/09 22:27:22;;;;;;;;;;;;;;;;;;10242599;28;20506;-60
2021/08/09 22:32:19;;;;;;;;;;;;;;;;;;10259186;28;19917;-58
2021/08/09 22:37:16;;;;;;;;;;;;;;;;;;10270288;28;19928;-60
2021/08/09 22:42:13;;;;;;;;;;;;;;;;;;10261670;28;20149;-59
2021/08/09 22:47:11;;;;;;;;;;;;;;;;;;10301783;28;20008;-59
2021/08/09 22:52:08;;;;;;;;;;;;;;;;;;10274749;28;19924;-62
2021/08/09 22:57:05;;;;;;;;;;;;;;;;;;10274892;28;19921;-59
2021/08/09 23:02:02;;;;;;;;;;;;;;;;;;10269048;28;20307;-60
2021/08/09 23:07:00;;;;;;;;;;;;;;;;;;10278713;28;19933;-61
2021/08/09 23:11:57;;;;;;;;;;;;;;;;;;10271039;28;19917;-60
2021/08/09 23:16:54;;;;;;;;;;;;;;;;;;10278829;28;20426;-61
2021/08/09 23:21:52;;;;;;;;;;;;;;;;;;10269901;28;19929;-61
2021/08/09 23:26:49;;;;;;;;;;;;;;;;;;10269633;28;19970;-58
2021/08/09 23:31:46;;;;;;;;;;;;;;;;;;10278242;28;19921;-61
2021/08/09 23:36:43;;;;;;;;;;;;;;;;;;10289428;28;19924;-61
2021/08/09 23:41:41;;;;;;;;;;;;;;;;;;10280538;28;19964;-65
2021/08/09 23:46:38;;;;;;;;;;;;;;;;;;10266428;28;19936;-61
2021/08/09 23:51:35;;;;;;;;;;;;;;;;;;10283718;28;20354;-59
2021/08/09 23:56:32;;;;;;;;;;;;;;;;;;10283350;28;19975;-61
